EDDG

Münster Osnabrück Airport

Münster, Germany
METAR EDDG 160050Z VRB08KT CAVOK M01/M07 Q1015 NOSIG
Observed Flight Rules
Dec-16 @ 00:50 UTC (25 minutes ago) Visual Flight Rules
Wind Visibility Clouds
Variable at 8 knots 10,000+ meters
  • Clear skies
Temperatures Readings
Current -1°C / 30°F
Dewpoint -7°C / 19°F
Humidity 64%
Altimeter 29.97" Hg
Pressure 1015 hPa
Elevation 52
METAR EDDG 160050Z VRB08KT CAVOK M01/M07 Q1015 NOSIG
Observed Flight Rules
Dec-16 @ 00:50 UTC
(25 minutes ago)
VFR
Wind Visibility
Variable at 8 knots 10,000+ meters
Clouds
  • Clear skies
Temperature Dewpoint
-1°C / 30°F -7°C / 19°F
Humidity Altimeter Pressure
64% 29.97" Hg 1015 hPa